sensor_id;sensor_type;location;lat;lon;timestamp;P1;durP1;ratioP1;P2;durP2;ratioP2
19575;SDS011;41589;51.196;7.074;2022-11-15T00:01:41;1.30;;;1.30;;
19575;SDS011;41589;51.196;7.074;2022-11-15T00:07:01;1.20;;;1.20;;
19575;SDS011;41589;51.196;7.074;2022-11-15T00:12:20;1.70;;;1.60;;
19575;SDS011;41589;51.196;7.074;2022-11-15T00:17:39;1.77;;;1.67;;
19575;SDS011;41589;51.196;7.074;2022-11-15T00:22:58;1.40;;;1.40;;
19575;SDS011;41589;51.196;7.074;2022-11-15T00:28:17;1.67;;;1.57;;
19575;SDS011;41589;51.196;7.074;2022-11-15T00:33:36;1.40;;;1.40;;
19575;SDS011;41589;51.196;7.074;2022-11-15T00:38:55;1.23;;;1.23;;
19575;SDS011;41589;51.196;7.074;2022-11-15T00:44:14;1.10;;;1.10;;
19575;SDS011;41589;51.196;7.074;2022-11-15T00:49:33;1.23;;;1.23;;
19575;SDS011;41589;51.196;7.074;2022-11-15T00:54:52;1.20;;;1.20;;
19575;SDS011;41589;51.196;7.074;2022-11-15T01:00:11;1.80;;;1.70;;
19575;SDS011;41589;51.196;7.074;2022-11-15T01:05:31;0.93;;;0.93;;
19575;SDS011;41589;51.196;7.074;2022-11-15T01:10:50;1.53;;;1.43;;
19575;SDS011;41589;51.196;7.074;2022-11-15T01:16:11;1.20;;;1.10;;
19575;SDS011;41589;51.196;7.074;2022-11-15T01:21:32;1.00;;;1.00;;
19575;SDS011;41589;51.196;7.074;2022-11-15T01:26:52;1.20;;;1.20;;
19575;SDS011;41589;51.196;7.074;2022-11-15T01:32:11;1.20;;;1.20;;
19575;SDS011;41589;51.196;7.074;2022-11-15T01:37:30;1.30;;;1.20;;
19575;SDS011;41589;51.196;7.074;2022-11-15T01:42:50;1.00;;;1.00;;
19575;SDS011;41589;51.196;7.074;2022-11-15T01:48:09;1.00;;;1.00;;
19575;SDS011;41589;51.196;7.074;2022-11-15T01:53:29;1.17;;;1.17;;
19575;SDS011;41589;51.196;7.074;2022-11-15T01:58:51;1.33;;;1.30;;
19575;SDS011;41589;51.196;7.074;2022-11-15T02:04:13;1.20;;;1.20;;
19575;SDS011;41589;51.196;7.074;2022-11-15T02:09:35;1.30;;;1.20;;
19575;SDS011;41589;51.196;7.074;2022-11-15T02:14:56;1.07;;;1.07;;
19575;SDS011;41589;51.196;7.074;2022-11-15T02:41:58;1.10;;;1.10;;
19575;SDS011;41589;51.196;7.074;2022-11-15T02:47:22;1.20;;;1.20;;
19575;SDS011;41589;51.196;7.074;2022-11-15T02:52:45;1.17;;;1.17;;
19575;SDS011;41589;51.196;7.074;2022-11-15T03:03:37;1.13;;;1.13;;
19575;SDS011;41589;51.196;7.074;2022-11-15T03:14:37;1.20;;;1.10;;
19575;SDS011;41589;51.196;7.074;2022-11-15T03:20:06;1.33;;;1.33;;
19575;SDS011;41589;51.196;7.074;2022-11-15T03:25:27;1.20;;;1.20;;
19575;SDS011;41589;51.196;7.074;2022-11-15T03:30:48;1.30;;;1.30;;
19575;SDS011;41589;51.196;7.074;2022-11-15T03:36:09;1.10;;;1.10;;
19575;SDS011;41589;51.196;7.074;2022-11-15T03:41:36;1.10;;;1.10;;
19575;SDS011;41589;51.196;7.074;2022-11-15T03:53:14;1.00;;;1.00;;
19575;SDS011;41589;51.196;7.074;2022-11-15T03:58:33;1.07;;;1.03;;
19575;SDS011;41589;51.196;7.074;2022-11-15T04:03:52;0.80;;;0.80;;
19575;SDS011;41589;51.196;7.074;2022-11-15T04:09:10;1.10;;;1.10;;
19575;SDS011;41589;51.196;7.074;2022-11-15T04:14:29;1.00;;;1.00;;
19575;SDS011;41589;51.196;7.074;2022-11-15T04:19:48;1.10;;;1.10;;
19575;SDS011;41589;51.196;7.074;2022-11-15T04:25:26;0.97;;;0.97;;
19575;SDS011;41589;51.196;7.074;2022-11-15T04:30:46;1.00;;;1.00;;
19575;SDS011;41589;51.196;7.074;2022-11-15T04:36:05;1.00;;;1.00;;
19575;SDS011;41589;51.196;7.074;2022-11-15T04:41:43;1.00;;;1.00;;
19575;SDS011;41589;51.196;7.074;2022-11-15T04:47:02;1.00;;;1.00;;
19575;SDS011;41589;51.196;7.074;2022-11-15T04:52:22;1.03;;;1.03;;
19575;SDS011;41589;51.196;7.074;2022-11-15T04:57:41;0.90;;;0.90;;
19575;SDS011;41589;51.196;7.074;2022-11-15T05:03:00;1.00;;;1.00;;
19575;SDS011;41589;51.196;7.074;2022-11-15T05:08:38;1.00;;;1.00;;
19575;SDS011;41589;51.196;7.074;2022-11-15T05:13:57;0.90;;;0.90;;
19575;SDS011;41589;51.196;7.074;2022-11-15T05:19:16;1.10;;;1.10;;
19575;SDS011;41589;51.196;7.074;2022-11-15T05:24:35;1.00;;;1.00;;
19575;SDS011;41589;51.196;7.074;2022-11-15T05:29:54;1.00;;;1.00;;
19575;SDS011;41589;51.196;7.074;2022-11-15T05:35:21;0.87;;;0.87;;
19575;SDS011;41589;51.196;7.074;2022-11-15T05:40:49;0.87;;;0.87;;
19575;SDS011;41589;51.196;7.074;2022-11-15T05:46:08;1.00;;;1.00;;
19575;SDS011;41589;51.196;7.074;2022-11-15T05:51:28;0.80;;;0.80;;
19575;SDS011;41589;51.196;7.074;2022-11-15T05:56:48;1.03;;;1.03;;
19575;SDS011;41589;51.196;7.074;2022-11-15T06:02:08;1.00;;;1.00;;
19575;SDS011;41589;51.196;7.074;2022-11-15T06:07:28;1.10;;;1.10;;
19575;SDS011;41589;51.196;7.074;2022-11-15T06:12:55;0.90;;;0.90;;
19575;SDS011;41589;51.196;7.074;2022-11-15T06:18:17;0.70;;;0.70;;
19575;SDS011;41589;51.196;7.074;2022-11-15T06:23:36;0.70;;;0.70;;
19575;SDS011;41589;51.196;7.074;2022-11-15T06:28:55;0.80;;;0.80;;
19575;SDS011;41589;51.196;7.074;2022-11-15T06:34:14;0.70;;;0.70;;
19575;SDS011;41589;51.196;7.074;2022-11-15T06:39:33;0.70;;;0.70;;
19575;SDS011;41589;51.196;7.074;2022-11-15T06:44:52;0.80;;;0.80;;
19575;SDS011;41589;51.196;7.074;2022-11-15T06:50:12;0.73;;;0.73;;
19575;SDS011;41589;51.196;7.074;2022-11-15T06:55:31;0.70;;;0.70;;
19575;SDS011;41589;51.196;7.074;2022-11-15T07:00:50;0.60;;;0.60;;
19575;SDS011;41589;51.196;7.074;2022-11-15T07:06:09;0.77;;;0.77;;
19575;SDS011;41589;51.196;7.074;2022-11-15T07:11:29;0.70;;;0.70;;
19575;SDS011;41589;51.196;7.074;2022-11-15T07:16:48;0.70;;;0.70;;
19575;SDS011;41589;51.196;7.074;2022-11-15T07:22:07;0.70;;;0.70;;
19575;SDS011;41589;51.196;7.074;2022-11-15T07:27:27;0.60;;;0.60;;
19575;SDS011;41589;51.196;7.074;2022-11-15T07:32:46;0.70;;;0.70;;
19575;SDS011;41589;51.196;7.074;2022-11-15T07:38:05;0.70;;;0.70;;
19575;SDS011;41589;51.196;7.074;2022-11-15T07:43:24;0.70;;;0.70;;
19575;SDS011;41589;51.196;7.074;2022-11-15T07:48:46;0.70;;;0.70;;
19575;SDS011;41589;51.196;7.074;2022-11-15T07:54:05;0.60;;;0.60;;
19575;SDS011;41589;51.196;7.074;2022-11-15T07:59:24;0.70;;;0.70;;
19575;SDS011;41589;51.196;7.074;2022-11-15T08:04:43;0.70;;;0.70;;
19575;SDS011;41589;51.196;7.074;2022-11-15T08:10:02;0.70;;;0.70;;
19575;SDS011;41589;51.196;7.074;2022-11-15T08:15:22;0.63;;;0.63;;
19575;SDS011;41589;51.196;7.074;2022-11-15T08:20:42;0.60;;;0.60;;
19575;SDS011;41589;51.196;7.074;2022-11-15T08:26:02;0.70;;;0.70;;
19575;SDS011;41589;51.196;7.074;2022-11-15T08:31:22;0.70;;;0.70;;
19575;SDS011;41589;51.196;7.074;2022-11-15T08:36:41;0.70;;;0.70;;
19575;SDS011;41589;51.196;7.074;2022-11-15T08:42:00;0.70;;;0.70;;
19575;SDS011;41589;51.196;7.074;2022-11-15T08:47:20;0.60;;;0.60;;
19575;SDS011;41589;51.196;7.074;2022-11-15T08:52:39;0.60;;;0.60;;
19575;SDS011;41589;51.196;7.074;2022-11-15T08:57:58;0.70;;;0.70;;
19575;SDS011;41589;51.196;7.074;2022-11-15T09:03:17;0.60;;;0.60;;
19575;SDS011;41589;51.196;7.074;2022-11-15T09:08:36;0.80;;;0.80;;
19575;SDS011;41589;51.196;7.074;2022-11-15T09:13:55;0.70;;;0.70;;
19575;SDS011;41589;51.196;7.074;2022-11-15T09:19:14;0.70;;;0.70;;
19575;SDS011;41589;51.196;7.074;2022-11-15T09:24:34;0.67;;;0.67;;
19575;SDS011;41589;51.196;7.074;2022-11-15T09:29:53;0.70;;;0.70;;
19575;SDS011;41589;51.196;7.074;2022-11-15T09:35:12;0.60;;;0.60;;
19575;SDS011;41589;51.196;7.074;2022-11-15T09:40:32;0.60;;;0.60;;
19575;SDS011;41589;51.196;7.074;2022-11-15T09:51:37;0.70;;;0.70;;
19575;SDS011;41589;51.196;7.074;2022-11-15T09:57:11;0.67;;;0.67;;
19575;SDS011;41589;51.196;7.074;2022-11-15T10:07:32;0.73;;;0.70;;
19575;SDS011;41589;51.196;7.074;2022-11-15T10:12:42;0.60;;;0.60;;
19575;SDS011;41589;51.196;7.074;2022-11-15T10:18:04;0.70;;;0.70;;
19575;SDS011;41589;51.196;7.074;2022-11-15T10:23:28;0.60;;;0.60;;
19575;SDS011;41589;51.196;7.074;2022-11-15T10:28:30;0.70;;;0.70;;
19575;SDS011;41589;51.196;7.074;2022-11-15T10:33:38;0.60;;;0.60;;
19575;SDS011;41589;51.196;7.074;2022-11-15T10:49:16;0.70;;;0.70;;
19575;SDS011;41589;51.196;7.074;2022-11-15T10:54:44;0.60;;;0.60;;
19575;SDS011;41589;51.196;7.074;2022-11-15T10:59:48;0.60;;;0.60;;
19575;SDS011;41589;51.196;7.074;2022-11-15T11:04:52;0.60;;;0.60;;
19575;SDS011;41589;51.196;7.074;2022-11-15T11:10:25;0.63;;;0.63;;
19575;SDS011;41589;51.196;7.074;2022-11-15T11:15:20;0.63;;;0.63;;
19575;SDS011;41589;51.196;7.074;2022-11-15T11:25:43;0.47;;;0.47;;
19575;SDS011;41589;51.196;7.074;2022-11-15T11:36:42;0.63;;;0.63;;
19575;SDS011;41589;51.196;7.074;2022-11-15T11:41:55;0.60;;;0.60;;
19575;SDS011;41589;51.196;7.074;2022-11-15T11:52:34;0.50;;;0.50;;
19575;SDS011;41589;51.196;7.074;2022-11-15T11:58:32;0.50;;;0.50;;
19575;SDS011;41589;51.196;7.074;2022-11-15T12:03:22;0.50;;;0.50;;
19575;SDS011;41589;51.196;7.074;2022-11-15T12:08:32;0.40;;;0.40;;
19575;SDS011;41589;51.196;7.074;2022-11-15T12:13:41;0.50;;;0.50;;
19575;SDS011;41589;51.196;7.074;2022-11-15T12:18:44;0.50;;;0.50;;
19575;SDS011;41589;51.196;7.074;2022-11-15T12:23:49;0.70;;;0.70;;
19575;SDS011;41589;51.196;7.074;2022-11-15T12:28:59;0.73;;;0.73;;
19575;SDS011;41589;51.196;7.074;2022-11-15T12:39:21;0.53;;;0.53;;
19575;SDS011;41589;51.196;7.074;2022-11-15T12:45:01;0.60;;;0.60;;
19575;SDS011;41589;51.196;7.074;2022-11-15T12:50:01;0.60;;;0.60;;
19575;SDS011;41589;51.196;7.074;2022-11-15T12:55:02;0.50;;;0.50;;
19575;SDS011;41589;51.196;7.074;2022-11-15T13:10:40;0.80;;;0.80;;
19575;SDS011;41589;51.196;7.074;2022-11-15T13:15:56;0.50;;;0.50;;
19575;SDS011;41589;51.196;7.074;2022-11-15T13:20:59;0.57;;;0.57;;
19575;SDS011;41589;51.196;7.074;2022-11-15T13:26:08;0.70;;;0.70;;
19575;SDS011;41589;51.196;7.074;2022-11-15T13:36:27;0.70;;;0.70;;
19575;SDS011;41589;51.196;7.074;2022-11-15T13:41:31;0.63;;;0.60;;
19575;SDS011;41589;51.196;7.074;2022-11-15T13:46:33;1.17;;;0.70;;
19575;SDS011;41589;51.196;7.074;2022-11-15T13:51:38;0.80;;;0.80;;
19575;SDS011;41589;51.196;7.074;2022-11-15T13:56:40;0.80;;;0.80;;
19575;SDS011;41589;51.196;7.074;2022-11-15T14:01:45;0.70;;;0.70;;
19575;SDS011;41589;51.196;7.074;2022-11-15T14:06:46;0.80;;;0.80;;
19575;SDS011;41589;51.196;7.074;2022-11-15T14:11:52;0.80;;;0.80;;
19575;SDS011;41589;51.196;7.074;2022-11-15T14:16:54;0.90;;;0.90;;
19575;SDS011;41589;51.196;7.074;2022-11-15T14:22:09;0.70;;;0.70;;
19575;SDS011;41589;51.196;7.074;2022-11-15T14:27:26;0.83;;;0.83;;
19575;SDS011;41589;51.196;7.074;2022-11-15T14:32:29;0.60;;;0.60;;
19575;SDS011;41589;51.196;7.074;2022-11-15T14:37:41;0.60;;;0.60;;
19575;SDS011;41589;51.196;7.074;2022-11-15T14:42:41;0.60;;;0.60;;
19575;SDS011;41589;51.196;7.074;2022-11-15T14:47:42;0.77;;;0.77;;
19575;SDS011;41589;51.196;7.074;2022-11-15T14:52:43;0.70;;;0.70;;
19575;SDS011;41589;51.196;7.074;2022-11-15T14:57:44;0.70;;;0.70;;
19575;SDS011;41589;51.196;7.074;2022-11-15T15:02:46;0.70;;;0.70;;
19575;SDS011;41589;51.196;7.074;2022-11-15T15:07:47;0.60;;;0.60;;
19575;SDS011;41589;51.196;7.074;2022-11-15T15:12:48;0.70;;;0.70;;
19575;SDS011;41589;51.196;7.074;2022-11-15T15:17:49;0.50;;;0.50;;
19575;SDS011;41589;51.196;7.074;2022-11-15T15:22:49;0.80;;;0.80;;
19575;SDS011;41589;51.196;7.074;2022-11-15T15:27:50;0.87;;;0.87;;
19575;SDS011;41589;51.196;7.074;2022-11-15T15:32:50;0.60;;;0.60;;
19575;SDS011;41589;51.196;7.074;2022-11-15T15:37:52;0.70;;;0.70;;
19575;SDS011;41589;51.196;7.074;2022-11-15T15:42:52;0.80;;;0.80;;
19575;SDS011;41589;51.196;7.074;2022-11-15T15:47:52;0.70;;;0.70;;
19575;SDS011;41589;51.196;7.074;2022-11-15T15:52:54;0.90;;;0.90;;
19575;SDS011;41589;51.196;7.074;2022-11-15T15:57:56;0.70;;;0.70;;
19575;SDS011;41589;51.196;7.074;2022-11-15T16:02:57;0.70;;;0.70;;
19575;SDS011;41589;51.196;7.074;2022-11-15T16:07:58;0.70;;;0.70;;
19575;SDS011;41589;51.196;7.074;2022-11-15T16:12:58;0.70;;;0.70;;
19575;SDS011;41589;51.196;7.074;2022-11-15T16:17:59;0.63;;;0.63;;
19575;SDS011;41589;51.196;7.074;2022-11-15T16:23:01;0.70;;;0.70;;
19575;SDS011;41589;51.196;7.074;2022-11-15T16:28:03;0.60;;;0.60;;
19575;SDS011;41589;51.196;7.074;2022-11-15T16:33:04;0.70;;;0.70;;
19575;SDS011;41589;51.196;7.074;2022-11-15T16:38:04;0.73;;;0.73;;
19575;SDS011;41589;51.196;7.074;2022-11-15T16:43:04;0.67;;;0.67;;
19575;SDS011;41589;51.196;7.074;2022-11-15T16:48:05;2.00;;;1.90;;
19575;SDS011;41589;51.196;7.074;2022-11-15T16:53:08;0.80;;;0.80;;
19575;SDS011;41589;51.196;7.074;2022-11-15T16:58:09;0.73;;;0.73;;
19575;SDS011;41589;51.196;7.074;2022-11-15T17:03:09;0.60;;;0.60;;
19575;SDS011;41589;51.196;7.074;2022-11-15T17:08:10;0.80;;;0.80;;
19575;SDS011;41589;51.196;7.074;2022-11-15T17:13:13;0.70;;;0.70;;
19575;SDS011;41589;51.196;7.074;2022-11-15T17:18:14;0.60;;;0.60;;
19575;SDS011;41589;51.196;7.074;2022-11-15T17:23:14;0.70;;;0.70;;
19575;SDS011;41589;51.196;7.074;2022-11-15T17:28:15;0.60;;;0.60;;
19575;SDS011;41589;51.196;7.074;2022-11-15T17:33:15;0.80;;;0.80;;
19575;SDS011;41589;51.196;7.074;2022-11-15T17:38:15;0.60;;;0.60;;
19575;SDS011;41589;51.196;7.074;2022-11-15T17:43:16;0.60;;;0.60;;
19575;SDS011;41589;51.196;7.074;2022-11-15T17:48:16;0.80;;;0.80;;
19575;SDS011;41589;51.196;7.074;2022-11-15T17:53:16;0.63;;;0.63;;
19575;SDS011;41589;51.196;7.074;2022-11-15T17:58:17;0.93;;;0.70;;
19575;SDS011;41589;51.196;7.074;2022-11-15T18:03:18;0.60;;;0.60;;
19575;SDS011;41589;51.196;7.074;2022-11-15T18:08:18;0.67;;;0.67;;
19575;SDS011;41589;51.196;7.074;2022-11-15T18:13:19;0.70;;;0.70;;
19575;SDS011;41589;51.196;7.074;2022-11-15T18:18:20;0.80;;;0.80;;
19575;SDS011;41589;51.196;7.074;2022-11-15T18:23:20;0.80;;;0.80;;
19575;SDS011;41589;51.196;7.074;2022-11-15T18:28:21;0.80;;;0.80;;
19575;SDS011;41589;51.196;7.074;2022-11-15T18:33:21;0.70;;;0.70;;
19575;SDS011;41589;51.196;7.074;2022-11-15T18:38:21;0.80;;;0.80;;
19575;SDS011;41589;51.196;7.074;2022-11-15T18:43:22;0.80;;;0.80;;
19575;SDS011;41589;51.196;7.074;2022-11-15T18:48:22;0.80;;;0.80;;
19575;SDS011;41589;51.196;7.074;2022-11-15T18:53:23;0.77;;;0.77;;
19575;SDS011;41589;51.196;7.074;2022-11-15T18:58:23;0.70;;;0.70;;
19575;SDS011;41589;51.196;7.074;2022-11-15T19:03:23;0.70;;;0.70;;
19575;SDS011;41589;51.196;7.074;2022-11-15T19:08:24;0.80;;;0.80;;
19575;SDS011;41589;51.196;7.074;2022-11-15T19:13:24;0.90;;;0.90;;
19575;SDS011;41589;51.196;7.074;2022-11-15T19:18:24;0.70;;;0.70;;
19575;SDS011;41589;51.196;7.074;2022-11-15T19:23:25;0.90;;;0.90;;
19575;SDS011;41589;51.196;7.074;2022-11-15T19:28:26;0.90;;;0.90;;
19575;SDS011;41589;51.196;7.074;2022-11-15T19:33:27;0.70;;;0.70;;
19575;SDS011;41589;51.196;7.074;2022-11-15T19:38:31;1.07;;;1.07;;
19575;SDS011;41589;51.196;7.074;2022-11-15T19:43:33;0.70;;;0.70;;
19575;SDS011;41589;51.196;7.074;2022-11-15T19:48:35;1.00;;;1.00;;
19575;SDS011;41589;51.196;7.074;2022-11-15T19:53:41;1.90;;;1.90;;
19575;SDS011;41589;51.196;7.074;2022-11-15T19:58:42;0.90;;;0.90;;
19575;SDS011;41589;51.196;7.074;2022-11-15T20:03:44;3.50;;;3.40;;
19575;SDS011;41589;51.196;7.074;2022-11-15T20:08:45;2.67;;;2.57;;
19575;SDS011;41589;51.196;7.074;2022-11-15T20:13:47;1.10;;;1.10;;
19575;SDS011;41589;51.196;7.074;2022-11-15T20:18:48;1.00;;;1.00;;
19575;SDS011;41589;51.196;7.074;2022-11-15T20:23:49;1.20;;;1.20;;
19575;SDS011;41589;51.196;7.074;2022-11-15T20:28:50;0.90;;;0.90;;
19575;SDS011;41589;51.196;7.074;2022-11-15T20:33:51;0.90;;;0.90;;
19575;SDS011;41589;51.196;7.074;2022-11-15T20:38:54;1.10;;;1.10;;
19575;SDS011;41589;51.196;7.074;2022-11-15T20:43:58;1.10;;;1.10;;
19575;SDS011;41589;51.196;7.074;2022-11-15T20:49:01;0.90;;;0.90;;
19575;SDS011;41589;51.196;7.074;2022-11-15T20:54:02;0.90;;;0.90;;
19575;SDS011;41589;51.196;7.074;2022-11-15T20:59:03;0.80;;;0.80;;
19575;SDS011;41589;51.196;7.074;2022-11-15T21:04:03;0.70;;;0.70;;
19575;SDS011;41589;51.196;7.074;2022-11-15T21:09:03;0.90;;;0.90;;
19575;SDS011;41589;51.196;7.074;2022-11-15T21:14:23;0.77;;;0.77;;
19575;SDS011;41589;51.196;7.074;2022-11-15T21:19:23;0.87;;;0.87;;
19575;SDS011;41589;51.196;7.074;2022-11-15T21:24:24;0.80;;;0.80;;
19575;SDS011;41589;51.196;7.074;2022-11-15T21:29:24;0.90;;;0.90;;
19575;SDS011;41589;51.196;7.074;2022-11-15T21:34:25;0.90;;;0.90;;
19575;SDS011;41589;51.196;7.074;2022-11-15T21:39:26;0.80;;;0.80;;
19575;SDS011;41589;51.196;7.074;2022-11-15T21:44:26;0.90;;;0.90;;
19575;SDS011;41589;51.196;7.074;2022-11-15T21:49:27;0.90;;;0.90;;
19575;SDS011;41589;51.196;7.074;2022-11-15T21:54:27;1.20;;;1.20;;
19575;SDS011;41589;51.196;7.074;2022-11-15T21:59:28;0.80;;;0.80;;
19575;SDS011;41589;51.196;7.074;2022-11-15T22:04:28;1.00;;;1.00;;
19575;SDS011;41589;51.196;7.074;2022-11-15T22:09:28;0.90;;;0.90;;
19575;SDS011;41589;51.196;7.074;2022-11-15T22:14:29;0.80;;;0.80;;
19575;SDS011;41589;51.196;7.074;2022-11-15T22:19:29;0.87;;;0.87;;
19575;SDS011;41589;51.196;7.074;2022-11-15T22:24:29;0.70;;;0.70;;
19575;SDS011;41589;51.196;7.074;2022-11-15T22:29:29;0.90;;;0.90;;
19575;SDS011;41589;51.196;7.074;2022-11-15T22:34:30;0.70;;;0.70;;
19575;SDS011;41589;51.196;7.074;2022-11-15T22:39:30;0.93;;;0.90;;
19575;SDS011;41589;51.196;7.074;2022-11-15T22:44:31;0.90;;;0.90;;
19575;SDS011;41589;51.196;7.074;2022-11-15T22:49:31;0.90;;;0.90;;
19575;SDS011;41589;51.196;7.074;2022-11-15T22:54:31;0.90;;;0.90;;
19575;SDS011;41589;51.196;7.074;2022-11-15T22:59:32;0.80;;;0.80;;
19575;SDS011;41589;51.196;7.074;2022-11-15T23:04:34;1.13;;;1.13;;
19575;SDS011;41589;51.196;7.074;2022-11-15T23:09:34;0.90;;;0.90;;
19575;SDS011;41589;51.196;7.074;2022-11-15T23:14:35;0.97;;;0.97;;
19575;SDS011;41589;51.196;7.074;2022-11-15T23:19:35;0.90;;;0.90;;
19575;SDS011;41589;51.196;7.074;2022-11-15T23:24:36;0.90;;;0.90;;
19575;SDS011;41589;51.196;7.074;2022-11-15T23:29:36;0.93;;;0.93;;
19575;SDS011;41589;51.196;7.074;2022-11-15T23:34:56;0.90;;;0.90;;
19575;SDS011;41589;51.196;7.074;2022-11-15T23:39:57;0.90;;;0.90;;
19575;SDS011;41589;51.196;7.074;2022-11-15T23:44:57;1.00;;;1.00;;
19575;SDS011;41589;51.196;7.074;2022-11-15T23:49:57;0.97;;;0.97;;
19575;SDS011;41589;51.196;7.074;2022-11-15T23:54:58;1.00;;;1.00;;
19575;SDS011;41589;51.196;7.074;2022-11-15T23:59:58;0.90;;;0.90;;
